createdAt,value
2022-10-17T00:00:23.018Z,3.20
2022-10-17T00:02:50.759Z,4.85
2022-10-17T00:05:18.760Z,4.63
2022-10-17T00:10:14.509Z,4.78
2022-10-17T00:12:42.626Z,4.90
2022-10-17T00:17:40.508Z,9.05
2022-10-17T00:20:09.589Z,3.85
2022-10-17T00:22:37.646Z,3.28
2022-10-17T00:27:36.212Z,5.20
2022-10-17T00:30:06.274Z,4.05
2022-10-17T00:32:35.468Z,4.50
2022-10-17T00:35:03.942Z,3.08
2022-10-17T00:37:32.207Z,3.47
2022-10-17T00:40:00.251Z,3.25
2022-10-17T00:45:14.971Z,2.85
2022-10-17T00:47:46.145Z,3.50
2022-10-17T00:50:14.871Z,3.20
2022-10-17T00:52:43.156Z,3.78
2022-10-17T00:55:15.049Z,4.20
2022-10-17T00:57:45.203Z,4.15
2022-10-17T01:00:14.550Z,4.30
2022-10-17T01:02:42.593Z,4.13
2022-10-17T01:05:12.079Z,5.60
2022-10-17T01:07:42.638Z,3.45
2022-10-17T01:10:12.106Z,5.20
2022-10-17T01:12:56.519Z,2.70
2022-10-17T01:15:37.770Z,3.50
2022-10-17T01:18:18.372Z,4.70
2022-10-17T01:21:08.552Z,3.33
2022-10-17T01:24:18.252Z,4.45
2022-10-17T01:27:01.716Z,3.78
2022-10-17T01:29:39.363Z,3.88
2022-10-17T01:32:17.479Z,3.03
2022-10-17T01:34:56.191Z,2.92
2022-10-17T01:37:31.683Z,4.07
2022-10-17T01:40:10.560Z,3.17
2022-10-17T01:42:45.376Z,6.10
2022-10-17T01:45:17.692Z,3.28
2022-10-17T01:47:48.914Z,4.35
2022-10-17T01:50:21.298Z,3.13
2022-10-17T01:52:53.768Z,5.22
2022-10-17T01:55:24.931Z,4.43
2022-10-17T01:57:56.663Z,3.10
2022-10-17T02:00:28.124Z,3.40
2022-10-17T02:03:01.569Z,3.22
2022-10-17T02:05:34.387Z,3.40
2022-10-17T02:08:02.168Z,2.80
2022-10-17T02:10:37.428Z,3.28
2022-10-17T02:13:12.489Z,4.20
2022-10-17T02:16:09.502Z,3.72
2022-10-17T02:18:49.224Z,3.88
2022-10-17T02:21:25.424Z,3.30
2022-10-17T02:23:58.322Z,3.90
2022-10-17T02:26:31.591Z,3.70
2022-10-17T02:29:08.798Z,3.33
2022-10-17T02:31:41.120Z,5.60
2022-10-17T02:34:14.613Z,4.10
2022-10-17T02:36:48.221Z,4.78
2022-10-17T02:39:17.794Z,3.22
2022-10-17T02:41:47.243Z,3.03
2022-10-17T02:44:15.707Z,2.92
2022-10-17T02:46:46.311Z,3.97
2022-10-17T02:49:19.637Z,3.45
2022-10-17T02:51:55.036Z,3.63
2022-10-17T02:54:29.299Z,7.00
2022-10-17T02:57:01.983Z,3.88
2022-10-17T03:02:04.667Z,4.05
2022-10-17T03:04:34.471Z,3.25
2022-10-17T03:07:02.345Z,3.78
2022-10-17T03:09:30.285Z,4.28
2022-10-17T03:11:58.070Z,6.40
2022-10-17T03:14:25.933Z,4.80
2022-10-17T03:16:53.682Z,3.65
2022-10-17T03:19:21.552Z,3.83
2022-10-17T03:21:50.678Z,3.28
2022-10-17T03:24:19.767Z,3.67
2022-10-17T03:26:47.605Z,4.47
2022-10-17T03:29:15.716Z,4.85
2022-10-17T03:34:11.167Z,3.50
2022-10-17T03:36:38.983Z,5.40
2022-10-17T03:39:08.103Z,3.85
2022-10-17T03:41:36.321Z,4.13
2022-10-17T03:44:04.653Z,4.75
2022-10-17T03:49:00.351Z,3.28
2022-10-17T03:53:56.092Z,6.25
2022-10-17T03:56:26.791Z,5.57
2022-10-17T03:58:55.207Z,7.78
2022-10-17T04:01:24.133Z,7.00
2022-10-17T04:03:53.379Z,4.25
2022-10-17T04:06:22.579Z,3.38
2022-10-17T04:08:50.479Z,4.70
2022-10-17T04:13:48.137Z,6.88
2022-10-17T04:16:18.019Z,3.55
2022-10-17T04:18:45.873Z,3.80
2022-10-17T04:21:14.697Z,6.25
2022-10-17T04:23:42.545Z,5.35
2022-10-17T04:26:10.511Z,4.13
2022-10-17T04:33:53.899Z,3.80
2022-10-17T04:36:23.406Z,6.65
2022-10-17T04:38:51.766Z,5.65
2022-10-17T04:41:20.243Z,4.07
2022-10-17T04:43:50.977Z,4.95
2022-10-17T04:46:20.730Z,4.43
2022-10-17T04:48:48.486Z,3.78
2022-10-17T04:51:20.563Z,6.75
2022-10-17T04:53:51.019Z,5.15
2022-10-17T04:56:22.237Z,5.68
2022-10-17T04:58:50.664Z,5.00
2022-10-17T05:01:21.834Z,5.25
2022-10-17T05:03:49.635Z,6.68
2022-10-17T05:06:19.104Z,4.40
2022-10-17T05:08:47.784Z,6.78
2022-10-17T05:11:19.256Z,7.10
2022-10-17T05:13:51.591Z,4.20
2022-10-17T05:16:19.961Z,4.25
2022-10-17T05:18:52.940Z,5.63
2022-10-17T05:21:22.378Z,4.88
2022-10-17T05:23:50.828Z,5.70
2022-10-17T05:26:19.195Z,6.15
2022-10-17T05:28:47.220Z,5.53
2022-10-17T05:33:42.572Z,4.15
2022-10-17T05:36:12.324Z,7.03
2022-10-17T05:38:40.116Z,4.28
2022-10-17T05:41:08.000Z,6.05
2022-10-17T05:43:35.970Z,6.07
2022-10-17T05:46:07.624Z,4.60
2022-10-17T05:48:35.987Z,5.55
2022-10-17T05:51:05.725Z,8.75
2022-10-17T05:53:36.431Z,7.68
2022-10-17T05:56:06.002Z,11.70
2022-10-17T05:58:52.420Z,6.10
2022-10-17T06:03:49.805Z,5.38
2022-10-17T06:06:18.999Z,5.55
2022-10-17T06:08:48.214Z,4.32
2022-10-17T06:11:16.002Z,6.28
2022-10-17T06:13:43.844Z,6.93
2022-10-17T06:16:11.780Z,5.30
2022-10-17T06:18:40.017Z,5.10
2022-10-17T06:21:11.003Z,4.88
2022-10-17T06:23:39.062Z,5.90
2022-10-17T06:28:36.896Z,6.30
2022-10-17T06:31:08.984Z,5.65
2022-10-17T06:33:37.174Z,4.80
2022-10-17T06:36:06.344Z,5.22
2022-10-17T06:38:35.037Z,7.28
2022-10-17T06:41:09.417Z,4.82
2022-10-17T06:43:37.604Z,6.55
2022-10-17T06:46:05.620Z,7.05
2022-10-17T06:48:34.291Z,6.32
2022-10-17T06:51:02.243Z,4.53
2022-10-17T06:53:30.304Z,6.78
2022-10-17T06:58:31.736Z,6.28
2022-10-17T07:01:01.228Z,7.05
2022-10-17T07:03:30.367Z,7.55
2022-10-17T07:05:59.206Z,5.72
2022-10-17T07:08:27.149Z,6.13
2022-10-17T07:10:55.853Z,4.55
2022-10-17T07:13:23.695Z,7.72
2022-10-17T07:15:52.971Z,4.97
2022-10-17T07:18:20.792Z,6.05
2022-10-17T07:20:54.755Z,6.97
2022-10-17T07:23:23.018Z,5.65
2022-10-17T07:25:51.105Z,5.20
2022-10-17T07:30:50.617Z,7.22
2022-10-17T07:33:23.078Z,5.28
2022-10-17T07:35:52.671Z,4.65
2022-10-17T07:38:20.534Z,7.38
2022-10-17T07:40:55.458Z,5.30
2022-10-17T07:43:23.660Z,5.30
2022-10-17T07:45:51.643Z,7.05
2022-10-17T07:48:21.700Z,7.55
2022-10-17T07:50:51.517Z,5.78
2022-10-17T07:53:19.581Z,6.22
2022-10-17T07:58:16.327Z,5.32
2022-10-17T08:00:44.455Z,5.40
2022-10-17T08:03:12.439Z,9.57
2022-10-17T08:05:40.294Z,5.82
2022-10-17T08:08:09.610Z,4.65
2022-10-17T08:10:38.130Z,8.13
2022-10-17T08:13:05.981Z,6.75
2022-10-17T08:15:33.919Z,9.25
2022-10-17T08:18:02.192Z,5.53
2022-10-17T08:20:30.239Z,4.50
2022-10-17T08:25:27.226Z,6.72
2022-10-17T08:27:55.197Z,7.45
2022-10-17T08:30:23.184Z,5.97
2022-10-17T08:32:51.186Z,4.65
2022-10-17T08:37:47.025Z,5.82
2022-10-17T08:40:20.344Z,5.60
2022-10-17T08:43:02.593Z,4.38
2022-10-17T08:45:34.841Z,7.18
2022-10-17T08:48:05.468Z,5.88
2022-10-17T08:50:38.695Z,4.65
2022-10-17T08:53:15.998Z,4.57
2022-10-17T08:55:47.659Z,6.55
2022-10-17T08:58:20.441Z,4.82
2022-10-17T09:00:54.671Z,4.85
2022-10-17T09:03:50.618Z,4.78
2022-10-17T09:06:29.808Z,4.20
2022-10-17T09:09:10.457Z,4.13
2022-10-17T09:11:51.130Z,6.00
2022-10-17T09:14:43.164Z,4.03
2022-10-17T09:17:22.289Z,4.43
2022-10-17T09:20:04.684Z,4.63
2022-10-17T09:22:38.822Z,3.80
2022-10-17T09:25:12.536Z,6.45
2022-10-17T09:27:44.336Z,5.63
2022-10-17T09:30:44.158Z,5.07
2022-10-17T09:33:23.414Z,4.45
2022-10-17T09:36:06.240Z,3.08
2022-10-17T09:38:40.833Z,3.20
2022-10-17T09:44:16.382Z,3.60
2022-10-17T09:46:55.864Z,3.55
2022-10-17T09:49:31.772Z,4.55
2022-10-17T09:52:00.240Z,4.88
2022-10-17T09:54:35.410Z,3.10
2022-10-17T09:57:04.905Z,3.20
2022-10-17T09:59:35.242Z,4.78
2022-10-17T10:02:18.048Z,2.63
2022-10-17T10:05:06.093Z,2.42
2022-10-17T10:07:38.375Z,2.60
2022-10-17T10:10:08.973Z,3.53
2022-10-17T10:12:40.370Z,2.22
2022-10-17T10:15:34.845Z,3.50
2022-10-17T10:18:04.685Z,3.88
2022-10-17T10:20:35.839Z,2.15
2022-10-17T10:23:15.291Z,2.75
2022-10-17T10:25:58.158Z,3.20
2022-10-17T10:28:29.527Z,4.05
2022-10-17T10:31:00.026Z,5.53
2022-10-17T10:33:31.073Z,4.65
2022-10-17T10:36:01.857Z,4.20
2022-10-17T10:38:31.268Z,5.55
2022-10-17T10:41:04.424Z,6.53
2022-10-17T10:43:36.662Z,5.47
2022-10-17T10:46:07.440Z,5.25
2022-10-17T10:48:38.184Z,7.43
2022-10-17T10:51:14.009Z,4.95
2022-10-17T10:53:48.205Z,4.72
2022-10-17T10:56:20.967Z,4.95
2022-10-17T10:58:57.745Z,4.07
2022-10-17T11:01:32.622Z,6.50
2022-10-17T11:04:22.560Z,5.72
2022-10-17T11:06:54.131Z,4.85
2022-10-17T11:09:33.776Z,4.43
2022-10-17T11:12:07.599Z,4.35
2022-10-17T11:14:48.038Z,4.80
2022-10-17T11:17:29.377Z,5.55
2022-10-17T11:20:11.923Z,4.68
2022-10-17T11:22:43.308Z,3.88
2022-10-17T11:25:23.322Z,3.85
2022-10-17T11:27:51.260Z,4.05
2022-10-17T11:30:19.417Z,4.30
2022-10-17T11:32:50.799Z,5.70
2022-10-17T11:35:25.464Z,4.07
2022-10-17T11:38:09.513Z,3.00
2022-10-17T11:40:41.933Z,4.05
2022-10-17T11:43:16.077Z,3.45
2022-10-17T11:45:47.346Z,2.40
2022-10-17T11:48:20.865Z,2.85
2022-10-17T11:53:48.942Z,4.60
2022-10-17T11:56:21.559Z,2.63
2022-10-17T11:59:00.546Z,2.00
2022-10-17T12:01:35.591Z,3.08
2022-10-17T12:04:21.902Z,3.63
2022-10-17T12:07:13.970Z,2.33
2022-10-17T12:09:48.769Z,1.73
2022-10-17T12:12:27.283Z,1.85
2022-10-17T12:14:55.629Z,3.13
2022-10-17T12:17:34.775Z,2.58
2022-10-17T12:20:30.526Z,2.30
2022-10-17T12:23:04.552Z,4.25
2022-10-17T12:25:34.371Z,2.25
2022-10-17T12:28:16.126Z,6.35
2022-10-17T12:30:53.253Z,2.30
2022-10-17T12:33:23.617Z,1.67
2022-10-17T12:35:53.035Z,3.38
2022-10-17T12:38:29.314Z,2.13
2022-10-17T12:41:02.014Z,2.85
2022-10-17T12:46:45.056Z,2.75
2022-10-17T12:49:24.596Z,2.08
2022-10-17T12:52:18.451Z,3.50
2022-10-17T12:55:00.387Z,4.05
2022-10-17T12:57:44.551Z,1.60
2022-10-17T13:00:24.655Z,3.78
2022-10-17T13:02:56.133Z,2.28
2022-10-17T13:05:30.458Z,1.48
2022-10-17T13:08:00.932Z,2.17
2022-10-17T13:10:33.238Z,3.85
2022-10-17T13:13:07.401Z,2.83
2022-10-17T13:15:37.394Z,4.28
2022-10-17T13:18:05.797Z,2.53
2022-10-17T13:20:33.958Z,1.67
2022-10-17T13:23:02.031Z,4.38
2022-10-17T13:25:31.331Z,3.08
2022-10-17T13:28:12.075Z,1.67
2022-10-17T13:30:40.135Z,5.15
2022-10-17T13:33:28.883Z,2.30
2022-10-17T13:36:01.048Z,1.77
2022-10-17T13:38:34.800Z,1.70
2022-10-17T13:41:34.198Z,3.13
2022-10-17T13:44:04.568Z,2.45
2022-10-17T13:46:39.557Z,2.35
2022-10-17T13:49:23.300Z,2.17
2022-10-17T13:51:55.360Z,1.35
2022-10-17T13:54:35.611Z,3.38
2022-10-17T13:57:06.073Z,3.42
2022-10-17T13:59:40.187Z,2.13
2022-10-17T14:02:14.689Z,2.05
2022-10-17T14:05:16.314Z,3.47
2022-10-17T14:08:05.556Z,3.28
2022-10-17T14:10:28.133Z,2.40
2022-10-17T14:12:58.024Z,2.28
2022-10-17T14:15:28.646Z,1.52
2022-10-17T14:18:02.297Z,1.70
2022-10-17T14:21:31.811Z,3.53
2022-10-17T14:23:32.566Z,1.33
2022-10-17T14:26:09.173Z,1.17
2022-10-17T14:28:39.726Z,2.22
2022-10-17T14:31:22.363Z,1.90
2022-10-17T14:33:51.755Z,2.80
2022-10-17T14:36:20.685Z,1.95
2022-10-17T14:38:50.960Z,6.07
2022-10-17T14:44:20.583Z,2.35
2022-10-17T14:46:52.600Z,3.40
2022-10-17T14:49:25.399Z,1.50
2022-10-17T14:52:29.192Z,2.03
2022-10-17T14:54:58.122Z,2.25
2022-10-17T14:57:41.794Z,1.48
2022-10-17T15:00:15.651Z,3.38
2022-10-17T15:02:44.141Z,2.03
2022-10-17T15:05:13.401Z,2.05
2022-10-17T15:07:41.913Z,3.38
2022-10-17T15:10:24.468Z,1.65
2022-10-17T15:12:57.554Z,1.42
2022-10-17T15:15:34.044Z,3.15
2022-10-17T15:18:02.503Z,2.80
2022-10-17T15:20:30.995Z,1.73
2022-10-17T15:23:00.345Z,2.78
2022-10-17T15:25:29.772Z,3.58
2022-10-17T15:27:57.769Z,1.73
2022-10-17T15:30:27.583Z,1.83
2022-10-17T15:32:57.374Z,3.22
2022-10-17T15:35:25.650Z,5.95
2022-10-17T15:37:53.427Z,2.70
2022-10-17T15:40:23.034Z,5.28
2022-10-17T15:42:51.339Z,3.05
2022-10-17T15:45:21.893Z,2.78
2022-10-17T15:47:52.696Z,2.97
2022-10-17T15:50:22.785Z,2.28
2022-10-17T15:52:52.229Z,2.63
2022-10-17T15:55:20.722Z,3.03
2022-10-17T15:57:49.879Z,2.92
2022-10-17T16:00:19.595Z,3.25
2022-10-17T16:02:49.322Z,1.67
2022-10-17T16:05:23.154Z,1.58
2022-10-17T16:07:53.968Z,2.63
2022-10-17T16:10:22.765Z,1.52
2022-10-17T16:12:51.123Z,2.97
2022-10-17T16:15:24.847Z,2.63
2022-10-17T16:17:53.880Z,2.50
2022-10-17T16:20:22.781Z,2.25
2022-10-17T16:23:00.027Z,5.25
2022-10-17T16:25:29.594Z,1.70
2022-10-17T16:27:59.437Z,3.95
2022-10-17T16:30:29.539Z,3.55
2022-10-17T16:32:57.712Z,1.73
2022-10-17T16:35:31.696Z,1.67
2022-10-17T16:38:04.142Z,3.35
2022-10-17T16:40:31.928Z,4.63
2022-10-17T16:42:59.872Z,4.05
2022-10-17T16:45:27.922Z,4.30
2022-10-17T16:50:24.522Z,4.00
2022-10-17T16:52:52.417Z,4.15
2022-10-17T16:55:21.650Z,5.70
2022-10-17T16:57:49.750Z,5.47
2022-10-17T17:00:18.302Z,6.65
2022-10-17T17:02:48.540Z,3.63
2022-10-17T17:05:16.715Z,4.18
2022-10-17T17:07:44.536Z,5.80
2022-10-17T17:10:12.328Z,2.67
2022-10-17T17:12:41.468Z,2.47
2022-10-17T17:15:09.978Z,2.95
2022-10-17T17:17:49.566Z,4.28
2022-10-17T17:20:19.358Z,8.13
2022-10-17T17:22:47.244Z,15.43
2022-10-17T17:25:15.133Z,29.45
2022-10-17T17:27:44.252Z,23.60
2022-10-17T17:30:12.646Z,26.83
2022-10-17T17:32:40.745Z,29.25
2022-10-17T17:37:37.330Z,11.68
2022-10-17T17:40:06.609Z,14.20
2022-10-17T17:42:34.528Z,11.63
2022-10-17T17:45:04.496Z,9.57
2022-10-17T17:47:32.524Z,8.15
2022-10-17T17:50:00.655Z,6.78
2022-10-17T17:52:29.835Z,4.78
2022-10-17T17:54:57.845Z,5.25
2022-10-17T17:57:25.854Z,6.57
2022-10-17T17:59:53.780Z,6.45
2022-10-17T18:02:23.034Z,5.70
2022-10-17T18:04:51.224Z,4.28
2022-10-17T18:07:19.077Z,4.63
2022-10-17T18:09:48.225Z,6.72
2022-10-17T18:12:16.189Z,8.13
2022-10-17T18:14:44.204Z,6.38
2022-10-17T18:17:12.521Z,4.32
2022-10-17T18:19:42.626Z,6.45
2022-10-17T18:22:10.783Z,9.02
2022-10-17T18:24:38.706Z,6.40
2022-10-17T18:27:06.753Z,4.97
2022-10-17T18:29:34.794Z,6.43
2022-10-17T18:32:02.643Z,7.95
2022-10-17T18:34:30.700Z,7.88
2022-10-17T18:37:00.270Z,6.20
2022-10-17T18:39:28.559Z,6.95
2022-10-17T18:41:56.587Z,5.80
2022-10-17T18:44:24.834Z,6.35
2022-10-17T18:46:52.944Z,6.45
2022-10-17T18:51:51.382Z,5.32
2022-10-17T18:54:22.274Z,5.28
2022-10-17T18:56:52.370Z,6.45
2022-10-17T18:59:20.928Z,7.95
2022-10-17T19:01:49.267Z,6.78
2022-10-17T19:04:17.639Z,6.18
2022-10-17T19:06:45.735Z,7.95
2022-10-17T19:09:14.608Z,5.53
2022-10-17T19:11:44.534Z,5.75
2022-10-17T19:14:14.057Z,6.93
2022-10-17T19:16:43.745Z,6.43
2022-10-17T19:19:14.646Z,7.18
2022-10-17T19:21:43.162Z,6.70
2022-10-17T19:24:14.296Z,7.05
2022-10-17T19:26:45.527Z,6.78
2022-10-17T19:29:15.045Z,8.93
2022-10-17T19:31:46.065Z,6.28
2022-10-17T19:34:14.719Z,5.43
2022-10-17T19:36:43.157Z,8.70
2022-10-17T19:39:13.335Z,5.60
2022-10-17T19:41:41.469Z,7.47
2022-10-17T19:46:39.150Z,6.97
2022-10-17T19:49:07.745Z,6.47
2022-10-17T19:51:35.502Z,5.57
2022-10-17T19:54:03.319Z,5.55
2022-10-17T19:56:33.449Z,6.65
2022-10-17T19:59:01.209Z,6.43
2022-10-17T20:01:33.481Z,4.97
2022-10-17T20:04:01.376Z,7.13
2022-10-17T20:06:29.180Z,6.63
2022-10-17T20:08:57.450Z,7.32
2022-10-17T20:11:27.515Z,7.45
2022-10-17T20:13:56.593Z,6.35
2022-10-17T20:16:27.173Z,5.65
2022-10-17T20:18:58.062Z,9.88
2022-10-17T20:21:28.218Z,8.63
2022-10-17T20:23:56.616Z,7.45
2022-10-17T20:26:37.471Z,5.93
2022-10-17T20:29:11.061Z,9.18
2022-10-17T20:31:40.305Z,5.40
2022-10-17T20:34:12.758Z,7.03
2022-10-17T20:36:40.706Z,7.03
2022-10-17T20:39:09.181Z,6.10
2022-10-17T20:41:37.090Z,5.22
2022-10-17T20:44:06.798Z,5.95
2022-10-17T20:46:37.808Z,5.65
2022-10-17T20:49:15.617Z,6.95
2022-10-17T20:51:43.405Z,7.65
2022-10-17T20:54:11.751Z,5.90
2022-10-17T20:56:39.767Z,6.40
2022-10-17T21:01:37.011Z,5.97
2022-10-17T21:04:33.190Z,7.50
2022-10-17T21:06:54.758Z,5.47
2022-10-17T21:09:22.996Z,5.70
2022-10-17T21:11:55.104Z,7.18
2022-10-17T21:14:24.255Z,7.78
2022-10-17T21:16:53.113Z,6.82
2022-10-17T21:19:22.451Z,8.77
2022-10-17T21:21:50.789Z,7.63
2022-10-17T21:24:20.863Z,6.10
2022-10-17T21:26:55.157Z,7.38
2022-10-17T21:29:24.112Z,7.78
2022-10-17T21:31:52.329Z,6.13
2022-10-17T21:34:22.502Z,6.68
2022-10-17T21:36:50.589Z,8.85
2022-10-17T21:41:47.608Z,7.05
2022-10-17T21:44:16.972Z,5.85
2022-10-17T21:46:45.464Z,6.63
2022-10-17T21:49:15.118Z,6.85
2022-10-17T21:51:43.140Z,7.38
2022-10-17T21:54:11.264Z,5.43
2022-10-17T21:59:08.758Z,6.93
2022-10-17T22:04:07.829Z,7.45
2022-10-17T22:06:40.313Z,8.05
2022-10-17T22:09:11.346Z,6.38
2022-10-17T22:11:40.772Z,5.30
2022-10-17T22:14:12.296Z,5.07
2022-10-17T22:16:40.548Z,6.97
2022-10-17T22:19:10.159Z,8.75
2022-10-17T22:21:38.668Z,6.15
2022-10-17T22:24:11.191Z,8.48
2022-10-17T22:26:40.859Z,6.35
2022-10-17T22:29:09.964Z,8.43
2022-10-17T22:31:38.606Z,6.75
2022-10-17T22:34:07.850Z,7.18
2022-10-17T22:36:36.709Z,5.45
2022-10-17T22:39:05.687Z,6.07
2022-10-17T22:41:33.886Z,5.13
2022-10-17T22:44:03.185Z,8.18
2022-10-17T22:46:31.124Z,5.43
2022-10-17T22:48:59.216Z,5.97
2022-10-17T22:53:54.545Z,4.72
2022-10-17T22:56:23.655Z,5.63
2022-10-17T22:58:51.463Z,5.65
2022-10-17T23:01:22.570Z,4.78
2022-10-17T23:03:51.364Z,4.97
2022-10-17T23:06:19.980Z,6.65
2022-10-17T23:08:47.946Z,9.23
2022-10-17T23:11:15.817Z,5.60
2022-10-17T23:13:43.596Z,6.00
2022-10-17T23:16:11.651Z,4.82
2022-10-17T23:21:09.318Z,4.95
2022-10-17T23:23:37.531Z,6.88
2022-10-17T23:26:06.918Z,6.88
2022-10-17T23:28:35.689Z,4.32
2022-10-17T23:31:24.797Z,6.55
2022-10-17T23:33:54.138Z,8.25
2022-10-17T23:36:22.378Z,6.65
2022-10-17T23:38:52.655Z,4.70
2022-10-17T23:41:22.927Z,4.93
2022-10-17T23:43:51.807Z,5.13
2022-10-17T23:46:19.674Z,6.80
2022-10-17T23:48:47.550Z,4.15
2022-10-17T23:51:16.676Z,4.88
2022-10-17T23:53:44.842Z,5.82
2022-10-17T23:58:40.717Z,5.30
